Time;durP1;ratioP1;P1;durP2;ratioP2;P2;SDS_P1;SDS_P2;PMS_P1;PMS_P2;Temp;Humidity;BMP_temperature;BMP_pressure;BME280_temperature;BME280_humidity;BME280_pressure;Samples;Min_cycle;Max_cycle;Signal;HPM_P1;HPM_P2
2022/02/21 00:02:22;;;;;;;;;;;12.30;72.30;;;;;;4979939;28;20237;-64
2022/02/21 00:04:48;;;;;;;;;;;12.30;72.30;;;;;;4979993;28;19918;-64
2022/02/21 00:07:13;;;;;;;;;;;12.20;72.20;;;;;;4980036;28;19933;-64
2022/02/21 00:09:39;;;;;;;;;;;12.20;72.20;;;;;;4979956;28;19951;-64
2022/02/21 00:12:05;;;;;;;;;;;12.20;72.20;;;;;;4979783;28;20217;-64
2022/02/21 00:14:31;;;;;;;;;;;12.20;72.20;;;;;;4979893;28;19902;-64
2022/02/21 00:16:57;;;;;;;;;;;12.20;72.20;;;;;;4980048;28;19973;-64
2022/02/21 00:19:22;;;;;;;;;;;12.20;72.20;;;;;;4979854;28;20297;-64
2022/02/21 00:21:48;;;;;;;;;;;12.30;72.20;;;;;;4979711;28;19977;-64
2022/02/21 00:24:13;;;;;;;;;;;12.20;72.20;;;;;;4979760;28;19914;-64
2022/02/21 00:26:39;;;;;;;;;;;12.30;72.30;;;;;;4979652;28;20194;-64
2022/02/21 00:29:07;;;;;;;;;;;12.30;72.30;;;;;;4979672;28;19910;-65
2022/02/21 00:31:33;;;;;;;;;;;12.20;72.20;;;;;;4979661;28;19902;-64
2022/02/21 00:33:58;;;;;;;;;;;12.30;72.30;;;;;;4979532;28;20133;-64
2022/02/21 00:36:24;;;;;;;;;;;12.30;72.30;;;;;;4979529;28;19914;-65
2022/02/21 00:38:50;;;;;;;;;;;12.20;72.20;;;;;;4979548;28;19910;-64
2022/02/21 00:41:15;;;;;;;;;;;12.30;72.30;;;;;;4979395;28;19902;-64
2022/02/21 00:43:41;;;;;;;;;;;12.20;72.20;;;;;;4977981;28;19960;-65
2022/02/21 00:46:06;;;;;;;;;;;12.20;72.20;;;;;;4979361;28;19910;-65
2022/02/21 00:48:32;;;;;;;;;;;12.20;72.20;;;;;;4979447;28;19932;-65
2022/02/21 00:50:57;;;;;;;;;;;12.20;72.20;;;;;;4979335;28;20325;-65
2022/02/21 00:53:23;;;;;;;;;;;12.30;72.20;;;;;;4978040;28;19992;-64
2022/02/21 00:55:50;;;;;;;;;;;12.20;72.30;;;;;;4979176;28;19910;-64
2022/02/21 00:58:15;;;;;;;;;;;12.20;72.30;;;;;;4979230;28;19910;-64
2022/02/21 01:00:41;;;;;;;;;;;12.20;72.20;;;;;;4979190;28;19902;-64
2022/02/21 01:03:07;;;;;;;;;;;12.30;72.40;;;;;;4979048;28;19914;-64
2022/02/21 01:05:34;;;;;;;;;;;12.20;72.30;;;;;;4979079;28;19910;-64
2022/02/21 01:07:59;;;;;;;;;;;12.20;72.30;;;;;;4979409;28;19906;-64
2022/02/21 01:10:25;;;;;;;;;;;12.30;72.30;;;;;;4978948;28;20142;-64
2022/02/21 01:12:51;;;;;;;;;;;12.20;72.30;;;;;;4978884;28;20196;-64
2022/02/21 01:15:16;;;;;;;;;;;12.20;73.00;;;;;;4978989;28;20148;-65
2022/02/21 01:17:42;;;;;;;;;;;12.20;72.30;;;;;;4978975;28;20198;-64
2022/02/21 01:20:09;;;;;;;;;;;12.30;72.40;;;;;;4977682;28;19910;-63
2022/02/21 01:22:34;;;;;;;;;;;12.20;72.30;;;;;;4978760;28;19950;-65
2022/02/21 01:25:00;;;;;;;;;;;12.30;72.30;;;;;;4978823;28;19946;-64
2022/02/21 01:27:25;;;;;;;;;;;12.20;72.30;;;;;;4978757;28;20261;-64
2022/02/21 01:29:51;;;;;;;;;;;12.20;72.30;;;;;;4978813;28;19949;-64
2022/02/21 01:32:17;;;;;;;;;;;12.20;72.30;;;;;;4978722;28;19910;-64
2022/02/21 01:34:43;;;;;;;;;;;12.20;72.40;;;;;;4977537;28;19908;-64
2022/02/21 01:37:08;;;;;;;;;;;12.20;72.40;;;;;;4977399;28;20110;-64
2022/02/21 01:39:34;;;;;;;;;;;12.20;72.30;;;;;;4978543;28;20216;-64
2022/02/21 01:42:00;;;;;;;;;;;12.20;72.30;;;;;;4978505;28;19922;-64
2022/02/21 01:44:36;;;;;;;;;;;12.20;72.30;;;;;;4978436;28;19914;-64
2022/02/21 01:47:01;;;;;;;;;;;12.30;72.40;;;;;;4978581;28;20313;-64
2022/02/21 01:49:27;;;;;;;;;;;12.20;72.40;;;;;;4978464;28;19910;-64
2022/02/21 01:51:53;;;;;;;;;;;12.20;72.20;;;;;;4978441;28;19902;-64
2022/02/21 01:54:18;;;;;;;;;;;12.20;72.30;;;;;;4978421;28;20206;-64
2022/02/21 01:56:44;;;;;;;;;;;12.20;72.30;;;;;;4978447;28;19963;-64
2022/02/21 01:59:09;;;;;;;;;;;12.20;72.30;;;;;;4978348;28;19981;-64
2022/02/21 02:01:35;;;;;;;;;;;12.30;72.40;;;;;;4978245;28;19917;-64
2022/02/21 02:04:01;;;;;;;;;;;12.20;72.20;;;;;;4978192;28;19990;-64
2022/02/21 02:06:27;;;;;;;;;;;12.20;72.40;;;;;;4978271;28;19942;-64
2022/02/21 02:08:53;;;;;;;;;;;12.20;72.50;;;;;;4978286;28;20187;-64
2022/02/21 02:11:18;;;;;;;;;;;12.20;72.40;;;;;;4978172;28;19917;-64
2022/02/21 02:13:48;;;;;;;;;;;12.20;72.40;;;;;;4978256;28;19990;-64
2022/02/21 02:16:13;;;;;;;;;;;12.20;72.40;;;;;;4978149;28;20376;-64
2022/02/21 02:18:39;;;;;;;;;;;12.20;72.40;;;;;;4977749;28;19902;-64
2022/02/21 02:21:04;;;;;;;;;;;12.20;72.30;;;;;;4978113;28;19980;-65
2022/02/21 02:23:30;;;;;;;;;;;12.20;72.30;;;;;;4979393;28;19910;-64
2022/02/21 02:25:56;;;;;;;;;;;12.30;72.40;;;;;;4981557;28;19902;-64
2022/02/21 02:28:21;;;;;;;;;;;12.20;72.20;;;;;;4981533;28;20069;-65
2022/02/21 02:30:47;;;;;;;;;;;12.20;72.30;;;;;;4981458;28;19909;-65
2022/02/21 02:33:13;;;;;;;;;;;12.20;72.30;;;;;;4981499;28;20420;-64
2022/02/21 02:35:38;;;;;;;;;;;12.20;72.40;;;;;;4981374;28;19910;-64
2022/02/21 02:38:04;;;;;;;;;;;12.20;72.40;;;;;;4981414;28;20252;-65
2022/02/21 02:40:29;;;;;;;;;;;12.20;72.40;;;;;;4981377;28;20261;-64
2022/02/21 02:42:55;;;;;;;;;;;12.20;72.40;;;;;;4981196;28;19918;-64
2022/02/21 02:45:21;;;;;;;;;;;12.20;72.30;;;;;;4981309;28;19902;-64
2022/02/21 02:47:46;;;;;;;;;;;12.20;72.50;;;;;;4981196;28;19910;-65
2022/02/21 02:50:12;;;;;;;;;;;12.20;72.40;;;;;;4981270;28;19909;-64
2022/02/21 02:52:38;;;;;;;;;;;12.20;72.50;;;;;;4981166;28;19910;-64
2022/02/21 02:55:03;;;;;;;;;;;12.20;72.30;;;;;;4981106;28;19914;-65
2022/02/21 02:57:29;;;;;;;;;;;12.20;72.30;;;;;;4981065;28;19910;-65
2022/02/21 02:59:55;;;;;;;;;;;12.20;72.40;;;;;;4981022;28;19910;-65
2022/02/21 03:02:20;;;;;;;;;;;12.20;72.50;;;;;;4980931;28;19902;-65
2022/02/21 03:04:46;;;;;;;;;;;12.20;72.40;;;;;;4980974;28;19903;-65
2022/02/21 03:07:11;;;;;;;;;;;12.20;72.40;;;;;;4980967;28;20197;-64
2022/02/21 03:09:37;;;;;;;;;;;12.20;72.40;;;;;;4980929;28;19917;-64
2022/02/21 03:12:03;;;;;;;;;;;12.20;72.40;;;;;;4980880;28;20541;-65
2022/02/21 03:14:28;;;;;;;;;;;12.20;72.50;;;;;;4980673;28;19910;-64
2022/02/21 03:16:54;;;;;;;;;;;12.20;72.40;;;;;;4980802;28;19902;-65
2022/02/21 03:19:19;;;;;;;;;;;12.20;72.40;;;;;;4979505;28;19910;-65
2022/02/21 03:21:46;;;;;;;;;;;12.10;72.50;;;;;;4980723;28;20194;-64
2022/02/21 03:24:11;;;;;;;;;;;12.20;72.60;;;;;;4980862;28;19906;-65
2022/02/21 03:26:37;;;;;;;;;;;12.10;72.50;;;;;;4980638;28;19994;-64
2022/02/21 03:29:03;;;;;;;;;;;12.20;72.60;;;;;;4980661;28;19902;-64
2022/02/21 03:31:28;;;;;;;;;;;12.20;72.60;;;;;;4980562;28;19917;-65
2022/02/21 03:33:54;;;;;;;;;;;12.20;72.60;;;;;;4980522;28;20080;-64
2022/02/21 03:36:19;;;;;;;;;;;12.10;72.40;;;;;;4980531;28;19910;-64
2022/02/21 03:38:45;;;;;;;;;;;12.10;72.40;;;;;;4980461;28;19937;-65
2022/02/21 03:41:10;;;;;;;;;;;12.10;72.40;;;;;;4980514;28;19902;-64
2022/02/21 03:43:36;;;;;;;;;;;12.20;72.50;;;;;;4980261;28;19976;-65
2022/02/21 03:46:02;;;;;;;;;;;12.20;72.50;;;;;;4980466;28;19934;-64
2022/02/21 03:48:28;;;;;;;;;;;12.20;72.60;;;;;;4980296;28;20281;-64
2022/02/21 03:50:53;;;;;;;;;;;12.20;72.60;;;;;;4980435;28;19947;-65
2022/02/21 03:53:19;;;;;;;;;;;12.20;72.60;;;;;;4980199;28;19914;-64
2022/02/21 03:55:45;;;;;;;;;;;12.20;72.50;;;;;;4980280;28;19910;-65
2022/02/21 03:58:11;;;;;;;;;;;12.10;72.50;;;;;;4980217;28;19902;-64
2022/02/21 04:00:36;;;;;;;;;;;12.20;72.50;;;;;;4980180;28;19917;-64
2022/02/21 04:03:02;;;;;;;;;;;12.20;72.50;;;;;;4980088;28;19914;-65
2022/02/21 04:05:28;;;;;;;;;;;12.20;72.50;;;;;;4980103;28;19909;-65
2022/02/21 04:07:53;;;;;;;;;;;12.20;72.50;;;;;;4980106;28;19941;-65
2022/02/21 04:10:19;;;;;;;;;;;12.10;72.40;;;;;;4979978;28;19943;-65
2022/02/21 04:12:45;;;;;;;;;;;12.20;72.60;;;;;;4980009;28;20284;-64
2022/02/21 04:15:11;;;;;;;;;;;12.20;72.60;;;;;;4979931;28;20095;-64
2022/02/21 04:17:40;;;;;;;;;;;12.10;72.50;;;;;;4979943;28;19917;-65
2022/02/21 04:20:05;;;;;;;;;;;12.10;72.50;;;;;;4979896;28;19910;-64
2022/02/21 04:22:31;;;;;;;;;;;12.10;72.50;;;;;;4979755;28;20012;-64
2022/02/21 04:24:57;;;;;;;;;;;12.10;72.50;;;;;;4979760;28;19910;-64
2022/02/21 04:27:22;;;;;;;;;;;12.20;72.60;;;;;;4979803;28;20105;-65
2022/02/21 04:29:48;;;;;;;;;;;12.10;72.50;;;;;;4979725;28;20064;-64
2022/02/21 04:32:13;;;;;;;;;;;12.20;72.50;;;;;;4979823;28;19910;-65
2022/02/21 04:34:39;;;;;;;;;;;12.10;72.50;;;;;;4979608;28;19977;-64
2022/02/21 04:37:05;;;;;;;;;;;12.10;72.50;;;;;;4979638;28;20141;-64
2022/02/21 04:39:30;;;;;;;;;;;12.10;72.60;;;;;;4979611;28;20225;-65
2022/02/21 04:41:56;;;;;;;;;;;12.10;72.50;;;;;;4979402;28;19945;-64
2022/02/21 04:44:21;;;;;;;;;;;12.10;72.50;;;;;;4979478;28;19936;-65
2022/02/21 04:46:48;;;;;;;;;;;12.10;72.50;;;;;;4978883;28;19910;-65
2022/02/21 04:49:14;;;;;;;;;;;12.10;72.40;;;;;;4979485;28;19916;-64
2022/02/21 04:51:40;;;;;;;;;;;12.10;72.50;;;;;;4979476;28;19945;-65
2022/02/21 04:54:06;;;;;;;;;;;12.10;72.30;;;;;;4979395;28;19932;-65
2022/02/21 04:56:31;;;;;;;;;;;12.10;72.40;;;;;;4979392;28;20419;-64
2022/02/21 04:58:57;;;;;;;;;;;12.20;72.40;;;;;;4979530;28;20011;-64
2022/02/21 05:01:22;;;;;;;;;;;12.10;72.40;;;;;;4979278;28;20186;-65
2022/02/21 05:03:48;;;;;;;;;;;12.10;72.40;;;;;;4979161;28;19914;-64
2022/02/21 05:06:14;;;;;;;;;;;12.10;72.40;;;;;;4979225;28;19957;-64
2022/02/21 05:08:39;;;;;;;;;;;12.10;72.40;;;;;;4979119;28;19955;-64
2022/02/21 05:11:06;;;;;;;;;;;12.10;72.20;;;;;;4979149;28;19910;-64
2022/02/21 05:13:31;;;;;;;;;;;12.10;72.30;;;;;;4979122;28;19910;-64
2022/02/21 05:15:57;;;;;;;;;;;12.10;72.40;;;;;;4979059;28;19910;-65
2022/02/21 05:18:22;;;;;;;;;;;12.10;72.30;;;;;;4979010;28;19902;-65
2022/02/21 05:20:48;;;;;;;;;;;12.10;72.30;;;;;;4978958;28;19910;-64
2022/02/21 05:23:13;;;;;;;;;;;12.10;72.20;;;;;;4977689;28;19914;-65
2022/02/21 05:25:39;;;;;;;;;;;12.10;72.30;;;;;;4978870;28;19985;-65
2022/02/21 05:28:06;;;;;;;;;;;12.10;72.30;;;;;;4977740;28;20141;-64
2022/02/21 05:30:32;;;;;;;;;;;12.10;72.30;;;;;;4978876;28;20253;-65
2022/02/21 05:32:57;;;;;;;;;;;12.10;72.30;;;;;;4978766;28;19902;-64
2022/02/21 05:35:23;;;;;;;;;;;12.10;72.30;;;;;;4978838;28;20155;-65
2022/02/21 05:37:48;;;;;;;;;;;12.10;72.40;;;;;;4978706;28;19914;-65
2022/02/21 05:40:14;;;;;;;;;;;12.10;72.40;;;;;;4978643;28;19906;-65
2022/02/21 05:42:40;;;;;;;;;;;12.10;72.30;;;;;;4978511;28;19929;-64
2022/02/21 05:45:05;;;;;;;;;;;12.10;72.30;;;;;;4978604;28;19948;-65
2022/02/21 05:47:31;;;;;;;;;;;12.10;72.40;;;;;;4978607;28;20202;-64
2022/02/21 05:49:57;;;;;;;;;;;12.10;72.40;;;;;;4978802;28;19917;-64
2022/02/21 05:52:22;;;;;;;;;;;12.10;72.40;;;;;;4978505;28;20209;-64
2022/02/21 05:54:48;;;;;;;;;;;12.10;72.40;;;;;;4978450;28;19929;-64
2022/02/21 05:57:13;;;;;;;;;;;12.10;72.40;;;;;;4977864;28;19952;-64
2022/02/21 05:59:39;;;;;;;;;;;12.10;72.30;;;;;;4977968;28;19993;-64
2022/02/21 06:02:04;;;;;;;;;;;12.10;72.30;;;;;;4978444;28;19917;-65
2022/02/21 06:04:30;;;;;;;;;;;12.10;72.30;;;;;;4978366;28;19914;-64
2022/02/21 06:06:56;;;;;;;;;;;12.00;72.30;;;;;;4978348;28;19937;-64
2022/02/21 06:09:21;;;;;;;;;;;12.10;72.30;;;;;;4978382;28;20230;-65
2022/02/21 06:11:47;;;;;;;;;;;12.10;72.40;;;;;;4978284;28;19921;-65
2022/02/21 06:14:12;;;;;;;;;;;12.00;72.40;;;;;;4978274;28;19943;-65
2022/02/21 06:16:41;;;;;;;;;;;12.10;72.50;;;;;;4978242;28;20191;-65
2022/02/21 06:19:07;;;;;;;;;;;12.10;72.40;;;;;;4978139;28;20110;-64
2022/02/21 06:21:32;;;;;;;;;;;12.00;72.30;;;;;;4978260;28;19944;-65
2022/02/21 06:23:58;;;;;;;;;;;12.00;72.40;;;;;;4978027;28;19914;-64
2022/02/21 06:26:24;;;;;;;;;;;12.10;72.40;;;;;;4978208;28;19910;-65
2022/02/21 06:28:49;;;;;;;;;;;12.10;72.50;;;;;;4978118;28;19910;-65
2022/02/21 06:31:15;;;;;;;;;;;12.10;72.50;;;;;;4978100;28;19941;-65
2022/02/21 06:33:40;;;;;;;;;;;12.10;72.50;;;;;;4978071;28;19906;-65
2022/02/21 06:36:06;;;;;;;;;;;12.10;72.60;;;;;;4977980;28;20126;-64
2022/02/21 06:38:32;;;;;;;;;;;12.10;72.60;;;;;;4978027;28;19973;-64
2022/02/21 06:40:58;;;;;;;;;;;12.10;72.60;;;;;;4977961;28;19933;-64
2022/02/21 06:43:23;;;;;;;;;;;12.10;72.60;;;;;;4977781;28;20234;-64
2022/02/21 06:45:49;;;;;;;;;;;12.10;72.60;;;;;;4977881;28;19910;-65
2022/02/21 06:48:14;;;;;;;;;;;12.10;72.60;;;;;;4977919;28;20087;-64
2022/02/21 06:50:40;;;;;;;;;;;12.10;72.50;;;;;;4977860;28;19910;-64
2022/02/21 06:53:06;;;;;;;;;;;12.10;72.50;;;;;;4977810;28;19902;-64
2022/02/21 06:55:31;;;;;;;;;;;12.10;72.50;;;;;;4977827;28;20432;-64
2022/02/21 06:57:57;;;;;;;;;;;12.00;72.50;;;;;;4977664;28;19917;-64
2022/02/21 07:00:22;;;;;;;;;;;12.10;72.50;;;;;;4977725;28;19902;-64
2022/02/21 07:02:49;;;;;;;;;;;12.00;72.50;;;;;;4977579;28;20130;-64
2022/02/21 07:05:15;;;;;;;;;;;12.00;72.50;;;;;;4978071;28;19906;-64
2022/02/21 07:07:40;;;;;;;;;;;12.00;72.60;;;;;;4977608;28;20213;-64
2022/02/21 07:10:06;;;;;;;;;;;12.10;72.60;;;;;;4979574;28;19932;-64
2022/02/21 07:12:32;;;;;;;;;;;12.00;72.60;;;;;;4980729;28;19914;-64
2022/02/21 07:14:58;;;;;;;;;;;12.10;72.50;;;;;;4980740;28;20270;-64
2022/02/21 07:17:23;;;;;;;;;;;12.10;72.50;;;;;;4980852;28;19917;-64
2022/02/21 07:19:49;;;;;;;;;;;12.00;72.60;;;;;;4980688;28;19910;-63
2022/02/21 07:22:15;;;;;;;;;;;12.10;72.70;;;;;;4980742;28;19917;-64
2022/02/21 07:24:41;;;;;;;;;;;12.10;72.70;;;;;;4980616;28;20178;-64
2022/02/21 07:27:07;;;;;;;;;;;12.10;72.50;;;;;;4980567;28;19989;-64
2022/02/21 07:29:33;;;;;;;;;;;12.10;72.60;;;;;;4980576;28;19902;-64
2022/02/21 07:31:59;;;;;;;;;;;12.10;72.70;;;;;;4980561;28;19917;-64
2022/02/21 07:34:24;;;;;;;;;;;12.10;72.60;;;;;;4980614;28;19910;-64
2022/02/21 07:36:53;;;;;;;;;;;12.00;72.60;;;;;;4980516;28;19948;-64
2022/02/21 07:39:19;;;;;;;;;;;12.00;72.60;;;;;;4980457;28;20198;-64
2022/02/21 07:41:45;;;;;;;;;;;12.10;72.60;;;;;;4980440;28;19918;-64
2022/02/21 07:44:10;;;;;;;;;;;12.10;72.70;;;;;;4980337;28;20125;-64
2022/02/21 07:46:36;;;;;;;;;;;12.10;72.60;;;;;;4980406;28;19918;-64
2022/02/21 07:49:01;;;;;;;;;;;12.00;72.60;;;;;;4980408;28;20206;-63
2022/02/21 07:51:28;;;;;;;;;;;12.00;72.60;;;;;;4980316;28;19910;-64
2022/02/21 07:53:55;;;;;;;;;;;12.00;72.60;;;;;;4980319;28;20009;-64
2022/02/21 07:56:21;;;;;;;;;;;12.10;72.60;;;;;;4980276;28;19914;-64
2022/02/21 07:58:46;;;;;;;;;;;12.10;72.60;;;;;;4980239;28;19945;-64
2022/02/21 08:01:12;;;;;;;;;;;12.00;72.50;;;;;;4980284;28;19917;-64
2022/02/21 08:03:37;;;;;;;;;;;12.10;72.50;;;;;;4980097;28;19913;-63
2022/02/21 08:06:07;;;;;;;;;;;12.00;72.60;;;;;;4980145;28;19902;-64
2022/02/21 08:08:32;;;;;;;;;;;12.10;72.60;;;;;;4980036;28;19914;-65
2022/02/21 08:10:58;;;;;;;;;;;12.00;72.60;;;;;;4980061;28;19972;-64
2022/02/21 08:13:24;;;;;;;;;;;12.10;72.80;;;;;;4980082;28;20240;-64
2022/02/21 08:15:49;;;;;;;;;;;12.10;72.70;;;;;;4980022;28;19937;-64
2022/02/21 08:18:15;;;;;;;;;;;12.00;72.60;;;;;;4980023;28;19949;-64
2022/02/21 08:20:40;;;;;;;;;;;12.10;72.60;;;;;;4979001;28;19910;-64
2022/02/21 08:23:06;;;;;;;;;;;12.10;72.70;;;;;;4979801;28;19921;-64
2022/02/21 08:25:32;;;;;;;;;;;12.10;72.70;;;;;;4979861;28;19982;-64
2022/02/21 08:27:57;;;;;;;;;;;12.00;72.60;;;;;;4979822;28;19916;-65
2022/02/21 08:30:23;;;;;;;;;;;12.10;72.70;;;;;;4979848;28;20332;-64
2022/02/21 08:32:49;;;;;;;;;;;12.00;72.70;;;;;;4979580;28;19948;-63
2022/02/21 08:35:15;;;;;;;;;;;12.10;72.70;;;;;;4979720;28;19910;-64
2022/02/21 08:37:41;;;;;;;;;;;12.00;72.70;;;;;;4979563;28;19940;-62
2022/02/21 08:40:09;;;;;;;;;;;12.10;72.80;;;;;;4979642;28;19977;-64
2022/02/21 08:42:35;;;;;;;;;;;12.10;72.80;;;;;;4979405;28;19921;-64
2022/02/21 08:45:01;;;;;;;;;;;12.00;72.70;;;;;;4979572;28;19917;-64
2022/02/21 08:47:27;;;;;;;;;;;12.00;72.70;;;;;;4979452;28;19910;-64
2022/02/21 08:49:52;;;;;;;;;;;12.00;72.60;;;;;;4979535;28;19902;-64
2022/02/21 08:52:18;;;;;;;;;;;12.10;72.60;;;;;;4979400;28;19909;-64
2022/02/21 08:54:44;;;;;;;;;;;12.10;72.60;;;;;;4979484;28;19949;-64
2022/02/21 08:57:10;;;;;;;;;;;12.10;72.70;;;;;;4979377;28;19989;-64
2022/02/21 08:59:35;;;;;;;;;;;12.10;72.70;;;;;;4979268;28;19910;-64
2022/02/21 09:02:01;;;;;;;;;;;12.10;72.80;;;;;;4979296;28;20352;-63
2022/02/21 09:04:27;;;;;;;;;;;12.00;72.60;;;;;;4979081;28;19914;-64
2022/02/21 09:06:52;;;;;;;;;;;12.10;72.70;;;;;;4979223;28;20079;-64
2022/02/21 09:09:24;;;;;;;;;;;12.00;72.60;;;;;;4979111;28;20000;-63
2022/02/21 09:11:50;;;;;;;;;;;12.10;72.70;;;;;;4979079;28;19906;-63
2022/02/21 09:14:17;;;;;;;;;;;12.10;72.70;;;;;;4979012;28;19933;-64
2022/02/21 09:16:42;;;;;;;;;;;12.00;72.70;;;;;;4979037;28;20126;-64
2022/02/21 09:19:08;;;;;;;;;;;12.10;72.70;;;;;;4978953;28;19902;-64
2022/02/21 09:21:33;;;;;;;;;;;12.00;72.70;;;;;;4978954;28;19910;-64
2022/02/21 09:23:59;;;;;;;;;;;12.00;72.50;;;;;;4978775;28;20191;-64
2022/02/21 09:26:25;;;;;;;;;;;12.00;72.60;;;;;;4978934;28;19910;-64
2022/02/21 09:28:50;;;;;;;;;;;12.10;72.60;;;;;;4978936;28;19985;-64
2022/02/21 09:31:16;;;;;;;;;;;12.10;72.70;;;;;;4978873;28;19917;-64
2022/02/21 09:33:41;;;;;;;;;;;12.00;72.60;;;;;;4978663;28;19977;-64
2022/02/21 09:36:07;;;;;;;;;;;12.10;72.80;;;;;;4978755;28;19910;-64
2022/02/21 09:38:33;;;;;;;;;;;12.00;72.60;;;;;;4978759;28;19973;-63
2022/02/21 09:40:59;;;;;;;;;;;12.10;72.60;;;;;;4978674;28;19914;-64
2022/02/21 09:43:27;;;;;;;;;;;12.10;72.60;;;;;;4978516;28;19937;-65
2022/02/21 09:46:07;;;;;;;;;;;12.10;72.70;;;;;;4978639;28;19941;-64
2022/02/21 09:48:33;;;;;;;;;;;12.10;72.60;;;;;;4978551;28;19910;-64
2022/02/21 09:51:00;;;;;;;;;;;12.10;72.60;;;;;;4978577;28;19932;-64
2022/02/21 09:53:30;;;;;;;;;;;12.10;72.60;;;;;;4978570;28;20200;-64
2022/02/21 09:55:56;;;;;;;;;;;12.10;72.60;;;;;;4978462;28;19951;-65
2022/02/21 09:58:22;;;;;;;;;;;12.10;72.60;;;;;;4978473;28;19917;-64
2022/02/21 10:00:47;;;;;;;;;;;12.10;72.60;;;;;;4978374;28;19909;-64
2022/02/21 10:03:16;;;;;;;;;;;12.10;72.60;;;;;;4978453;28;19928;-64
2022/02/21 10:05:48;;;;;;;;;;;12.10;72.60;;;;;;4978455;28;19969;-64
2022/02/21 10:08:15;;;;;;;;;;;12.10;72.60;;;;;;4977282;28;19972;-63
2022/02/21 10:10:41;;;;;;;;;;;12.10;72.60;;;;;;4978394;28;20149;-64
2022/02/21 10:13:06;;;;;;;;;;;12.10;72.60;;;;;;4978309;28;19917;-64
2022/02/21 10:15:33;;;;;;;;;;;12.10;72.60;;;;;;4978317;28;20202;-64
2022/02/21 10:18:17;;;;;;;;;;;12.10;72.60;;;;;;4978197;28;19981;-64
2022/02/21 10:20:53;;;;;;;;;;;12.10;72.60;;;;;;4978264;28;19937;-63
2022/02/21 10:23:19;;;;;;;;;;;12.10;72.50;;;;;;4978162;28;20118;-63
2022/02/21 10:25:58;;;;;;;;;;;12.10;72.50;;;;;;4978234;28;19910;-64
2022/02/21 10:28:28;;;;;;;;;;;12.10;72.50;;;;;;4978284;28;19925;-64
2022/02/21 10:31:08;;;;;;;;;;;12.10;72.50;;;;;;4978210;28;20186;-64
2022/02/21 10:33:34;;;;;;;;;;;12.10;72.50;;;;;;4978135;28;19916;-64
2022/02/21 10:36:00;;;;;;;;;;;12.10;72.50;;;;;;4978088;28;19910;-64
2022/02/21 10:38:38;;;;;;;;;;;12.10;72.60;;;;;;4978012;28;20171;-64
2022/02/21 10:41:04;;;;;;;;;;;12.10;72.60;;;;;;4978098;28;19910;-65
2022/02/21 10:43:32;;;;;;;;;;;12.10;72.60;;;;;;4976674;28;19922;-64
2022/02/21 10:45:58;;;;;;;;;;;12.10;72.50;;;;;;4981389;28;19909;-64
2022/02/21 10:48:24;;;;;;;;;;;12.10;72.60;;;;;;4981395;28;19910;-64
2022/02/21 10:50:59;;;;;;;;;;;12.10;72.60;;;;;;4981326;28;20112;-64
2022/02/21 10:53:45;;;;;;;;;;;12.10;72.60;;;;;;4981299;28;19910;-64
2022/02/21 10:56:12;;;;;;;;;;;12.10;72.60;;;;;;4981333;28;19910;-64
2022/02/21 10:58:37;;;;;;;;;;;12.10;72.60;;;;;;4981159;28;20210;-64
2022/02/21 11:01:05;;;;;;;;;;;12.10;72.60;;;;;;4981216;28;20013;-64
2022/02/21 11:03:31;;;;;;;;;;;12.10;72.60;;;;;;4981134;28;19913;-64
2022/02/21 11:05:59;;;;;;;;;;;12.20;72.70;;;;;;4981162;28;19981;-64
2022/02/21 11:08:26;;;;;;;;;;;12.10;72.60;;;;;;4981116;28;19910;-65
2022/02/21 11:10:53;;;;;;;;;;;12.10;72.60;;;;;;4981043;28;19910;-63
2022/02/21 11:13:19;;;;;;;;;;;12.20;72.60;;;;;;4981275;28;19997;-64
2022/02/21 11:15:47;;;;;;;;;;;12.10;72.60;;;;;;4980963;28;19914;-64
2022/02/21 11:18:14;;;;;;;;;;;12.10;72.60;;;;;;4980905;28;19920;-63
2022/02/21 11:20:39;;;;;;;;;;;12.10;72.50;;;;;;4980911;28;19984;-63
2022/02/21 11:23:05;;;;;;;;;;;12.10;72.50;;;;;;4980814;28;20214;-64
2022/02/21 11:25:35;;;;;;;;;;;12.20;72.60;;;;;;4980875;28;19933;-63
2022/02/21 11:28:08;;;;;;;;;;;12.20;72.60;;;;;;4980765;28;20258;-63
2022/02/21 11:30:35;;;;;;;;;;;12.20;72.60;;;;;;4980790;28;19934;-64
2022/02/21 11:33:02;;;;;;;;;;;12.20;72.60;;;;;;4980661;28;19909;-64
2022/02/21 11:35:27;;;;;;;;;;;12.20;72.50;;;;;;4980697;28;19914;-64
2022/02/21 11:37:53;;;;;;;;;;;12.20;72.60;;;;;;4980664;28;19902;-64
2022/02/21 11:40:19;;;;;;;;;;;12.20;72.60;;;;;;4980570;28;19941;-64
2022/02/21 11:42:45;;;;;;;;;;;12.10;72.50;;;;;;4980357;28;19914;-65
2022/02/21 11:45:27;;;;;;;;;;;12.20;72.60;;;;;;4980569;28;19916;-64
2022/02/21 11:47:57;;;;;;;;;;;12.10;72.60;;;;;;4980565;28;19921;-64
2022/02/21 11:50:25;;;;;;;;;;;12.20;72.60;;;;;;4980553;28;19909;-65
2022/02/21 11:52:52;;;;;;;;;;;12.10;72.60;;;;;;4980471;28;19971;-65
2022/02/21 11:55:29;;;;;;;;;;;12.10;72.70;;;;;;4979472;28;19977;-64
2022/02/21 11:58:13;;;;;;;;;;;12.10;72.70;;;;;;4980327;28;19902;-64
2022/02/21 12:00:39;;;;;;;;;;;12.10;72.70;;;;;;4978999;28;19917;-64
2022/02/21 12:03:09;;;;;;;;;;;12.10;72.70;;;;;;4980263;28;19914;-64
2022/02/21 12:05:35;;;;;;;;;;;12.10;72.80;;;;;;4980257;28;20472;-64
2022/02/21 12:08:16;;;;;;;;;;;12.10;72.80;;;;;;4980200;28;19976;-64
2022/02/21 12:11:11;;;;;;;;;;;12.10;72.80;;;;;;4980236;28;19956;-64
2022/02/21 12:13:49;;;;;;;;;;;12.10;73.50;;;;;;4980177;28;20114;-63
2022/02/21 12:16:16;;;;;;;;;;;12.10;72.90;;;;;;4980052;28;19902;-63
2022/02/21 12:18:41;;;;;;;;;;;12.10;72.90;;;;;;4980135;28;19964;-64
2022/02/21 12:21:07;;;;;;;;;;;12.10;72.90;;;;;;4979978;28;19914;-64
2022/02/21 12:23:32;;;;;;;;;;;12.10;72.90;;;;;;4979963;28;19906;-64
2022/02/21 12:25:58;;;;;;;;;;;12.10;72.90;;;;;;4979867;28;19933;-64
2022/02/21 12:28:25;;;;;;;;;;;12.10;72.90;;;;;;4979983;28;19934;-64
2022/02/21 12:30:54;;;;;;;;;;;12.10;72.90;;;;;;4979822;28;19902;-64
2022/02/21 12:33:24;;;;;;;;;;;12.10;72.90;;;;;;4980048;28;19951;-65
2022/02/21 12:35:59;;;;;;;;;;;12.10;72.90;;;;;;4979711;28;20210;-64
2022/02/21 12:38:26;;;;;;;;;;;12.10;72.90;;;;;;4979814;28;19917;-64
2022/02/21 12:41:12;;;;;;;;;;;12.10;73.60;;;;;;4979699;28;19917;-64
2022/02/21 12:43:45;;;;;;;;;;;12.10;72.90;;;;;;4979526;28;19963;-64
2022/02/21 12:46:11;;;;;;;;;;;12.10;72.90;;;;;;4979666;28;19909;-65
2022/02/21 12:48:37;;;;;;;;;;;12.10;72.90;;;;;;4979631;28;19916;-64
2022/02/21 12:51:02;;;;;;;;;;;12.10;73.00;;;;;;4979601;28;20098;-64
2022/02/21 12:53:28;;;;;;;;;;;12.10;72.90;;;;;;4978318;28;19910;-65
2022/02/21 12:56:00;;;;;;;;;;;12.10;73.00;;;;;;4979543;28;20185;-64
2022/02/21 12:58:36;;;;;;;;;;;12.10;72.90;;;;;;4979481;28;19910;-64
2022/02/21 13:01:02;;;;;;;;;;;12.10;72.90;;;;;;4979402;28;19917;-65
2022/02/21 13:03:28;;;;;;;;;;;12.10;73.00;;;;;;4979258;28;19906;-64
2022/02/21 13:05:57;;;;;;;;;;;12.10;73.00;;;;;;4979414;28;19930;-64
2022/02/21 13:08:38;;;;;;;;;;;12.10;72.90;;;;;;4978832;28;19921;-65
2022/02/21 13:11:04;;;;;;;;;;;12.10;72.90;;;;;;4979338;28;19910;-64
2022/02/21 13:13:30;;;;;;;;;;;12.10;72.90;;;;;;4979297;28;19910;-64
2022/02/21 13:15:56;;;;;;;;;;;12.10;72.90;;;;;;4979189;28;19952;-64
2022/02/21 13:18:21;;;;;;;;;;;12.10;72.90;;;;;;4977935;28;19917;-64
2022/02/21 13:20:47;;;;;;;;;;;12.10;72.80;;;;;;4979095;28;19910;-64
2022/02/21 13:23:13;;;;;;;;;;;12.10;72.90;;;;;;4979067;28;19906;-64
2022/02/21 13:25:38;;;;;;;;;;;12.10;72.80;;;;;;4977742;28;19960;-64
2022/02/21 13:28:17;;;;;;;;;;;12.10;72.80;;;;;;4979038;28;19910;-63
2022/02/21 13:30:42;;;;;;;;;;;12.20;72.90;;;;;;4979029;28;19987;-64
2022/02/21 13:33:11;;;;;;;;;;;12.20;72.80;;;;;;4978937;28;19902;-64
2022/02/21 13:35:37;;;;;;;;;;;12.10;72.80;;;;;;4978876;28;20169;-65
2022/02/21 13:38:02;;;;;;;;;;;12.10;72.80;;;;;;4978915;28;19917;-64
2022/02/21 13:40:29;;;;;;;;;;;12.10;72.70;;;;;;4978732;28;19906;-64
2022/02/21 13:42:54;;;;;;;;;;;12.20;72.80;;;;;;4977552;28;19972;-65
2022/02/21 13:45:23;;;;;;;;;;;12.20;72.80;;;;;;4979067;28;19926;-64
2022/02/21 13:48:08;;;;;;;;;;;12.10;72.70;;;;;;4978760;28;19910;-64
2022/02/21 13:50:40;;;;;;;;;;;12.20;72.80;;;;;;4978814;28;19973;-63
2022/02/21 13:53:06;;;;;;;;;;;12.20;72.80;;;;;;4978728;28;20036;-64
2022/02/21 13:55:37;;;;;;;;;;;12.20;72.80;;;;;;4978666;28;19977;-64
2022/02/21 13:58:04;;;;;;;;;;;12.20;72.80;;;;;;4978662;28;20267;-64
2022/02/21 14:00:37;;;;;;;;;;;12.10;72.80;;;;;;4978541;28;19938;-64
2022/02/21 14:03:03;;;;;;;;;;;12.10;72.80;;;;;;4977322;28;19948;-64
2022/02/21 14:05:28;;;;;;;;;;;12.10;72.70;;;;;;4978520;28;19909;-63
2022/02/21 14:07:54;;;;;;;;;;;12.20;72.80;;;;;;4977293;28;19914;-64
2022/02/21 14:10:21;;;;;;;;;;;12.20;72.80;;;;;;4978511;28;19910;-64
2022/02/21 14:12:57;;;;;;;;;;;12.10;72.80;;;;;;4978514;28;20229;-64
2022/02/21 14:15:23;;;;;;;;;;;12.20;72.90;;;;;;4978443;28;19934;-65